Terminal Aerodrome Forecast
Issued by NWS

Home | Current Version | Previous Version | Text Only | Print | Product List | Glossary Off
Versions: 1 2 3 4 5 6 7 8 9 10 11 12 13 14 15 16 17 18 19 20 21 22 23 24

000
FTUS41 KCLE 261010 AAA
TAFFDY
TAF AMD
KFDY 261010Z 2610/2706 28010KT P6SM OVC015
      TEMPO 2610/2613 5SM BR BKN008
     FM261600 26006KT P6SM BKN050
     FM261900 24006KT P6SM SCT050=

USA.gov is the U.S. government's official web portal to all federal, state and local government web resources and services.